Time;durP1;ratioP1;P1;durP2;ratioP2;P2;SDS_P1;SDS_P2;PMS_P1;PMS_P2;Temp;Humidity;BMP_temperature;BMP_pressure;BME280_temperature;BME280_humidity;BME280_pressure;Samples;Min_cycle;Max_cycle;Signal;HPM_P1;HPM_P2
2022/07/05 00:00:01;;;;;;;21.00;19.37;;;;;;;22.28;nan;99060.53;2057816;28;20463;-75
2022/07/05 00:01:02;;;;;;;21.33;19.53;;;;;;;22.26;nan;99056.63;2049076;29;20237;-75
2022/07/05 00:02:04;;;;;;;21.47;19.77;;;;;;;22.24;nan;99056.19;2049084;29;20881;-75
2022/07/05 00:03:06;;;;;;;22.27;20.23;;;;;;;22.18;nan;99054.97;2049232;28;20458;-75
2022/07/05 00:04:08;;;;;;;21.77;20.17;;;;;;;22.14;nan;99054.94;2049099;29;20434;-75
2022/07/05 00:05:09;;;;;;;22.70;20.90;;;;;;;22.10;nan;99050.63;2049351;28;20433;-75
2022/07/05 00:06:11;;;;;;;22.70;20.73;;;;;;;22.08;nan;99052.94;2057329;28;20524;-75
2022/07/05 00:07:17;;;;;;;23.20;20.73;;;;;;;22.03;nan;99059.44;2057884;28;20192;-75
2022/07/05 00:08:19;;;;;;;22.30;20.47;;;;;;;21.99;nan;99062.16;2057802;28;20441;-75
2022/07/05 00:09:20;;;;;;;22.27;20.20;;;;;;;21.96;nan;99059.38;2057760;28;20789;-75
2022/07/05 00:10:22;;;;;;;22.47;20.67;;;;;;;21.94;nan;99051.59;2057976;28;20421;-74
2022/07/05 00:11:24;;;;;;;22.27;20.43;;;;;;;21.91;nan;99052.34;2057767;28;20229;-75
2022/07/05 00:12:27;;;;;;;22.50;20.67;;;;;;;21.90;nan;99053.50;2049115;29;20457;-75
2022/07/05 00:13:28;;;;;;;22.17;20.30;;;;;;;21.89;nan;99056.56;2049431;28;20205;-75
2022/07/05 00:14:31;;;;;;;22.53;20.63;;;;;;;21.85;nan;99048.41;2057610;28;20433;-75
2022/07/05 00:15:33;;;;;;;22.30;20.47;;;;;;;21.85;nan;99051.13;2057731;28;20190;-75
2022/07/05 00:16:35;;;;;;;21.77;20.27;;;;;;;21.81;nan;99050.31;2057975;28;20457;-75
2022/07/05 00:17:35;;;;;;;22.27;20.40;;;;;;;21.80;nan;99051.44;2057995;28;20421;-74
2022/07/05 00:18:38;;;;;;;22.07;20.37;;;;;;;21.79;nan;99043.66;2049046;29;20450;-75
2022/07/05 00:19:39;;;;;;;21.90;19.97;;;;;;;21.78;nan;99042.09;2049924;28;20198;-75
2022/07/05 00:20:42;;;;;;;22.17;20.10;;;;;;;21.76;nan;99045.19;2048585;29;20446;-75
2022/07/05 00:21:42;;;;;;;22.67;20.67;;;;;;;21.72;nan;99044.38;2040961;29;20466;-75
2022/07/05 00:22:44;;;;;;;22.77;20.87;;;;;;;21.69;nan;99043.16;2049083;28;20454;-75
2022/07/05 00:23:46;;;;;;;22.60;20.67;;;;;;;21.68;nan;99047.03;2057181;28;20281;-74
2022/07/05 00:24:50;;;;;;;22.40;20.53;;;;;;;21.65;nan;99044.28;2058376;28;20436;-75
2022/07/05 00:25:52;;;;;;;22.43;20.47;;;;;;;21.65;nan;99050.50;2048593;29;20462;-74
2022/07/05 00:26:54;;;;;;;21.93;20.10;;;;;;;21.65;nan;99052.44;2041528;29;20513;-75
2022/07/05 00:27:54;;;;;;;21.63;20.03;;;;;;;21.65;nan;99055.16;2041133;29;20467;-75
2022/07/05 00:28:56;;;;;;;21.57;19.70;;;;;;;21.66;nan;99060.22;2049144;29;20519;-75
2022/07/05 00:29:57;;;;;;;22.57;20.30;;;;;;;21.65;nan;99061.38;2057750;28;20216;-75
2022/07/05 00:31:00;;;;;;;22.27;20.13;;;;;;;21.64;nan;99070.66;2057819;28;20425;-75
2022/07/05 00:32:01;;;;;;;21.20;19.63;;;;;;;21.70;nan;99068.38;2057747;28;20217;-74
2022/07/05 00:33:03;;;;;;;22.70;20.60;;;;;;;21.76;nan;99072.34;2057786;28;20428;-75
2022/07/05 00:34:04;;;;;;;21.90;20.10;;;;;;;21.83;nan;99080.59;2049016;29;20206;-75
2022/07/05 00:35:09;;;;;;;21.53;19.73;;;;;;;21.89;nan;99081.84;2041227;29;20459;-75
2022/07/05 00:36:11;;;;;;;22.00;20.17;;;;;;;21.95;nan;99074.13;2049084;28;20465;-75
2022/07/05 00:37:13;;;;;;;21.20;19.50;;;;;;;22.05;nan;99080.81;2057350;28;20425;-75
2022/07/05 00:38:13;;;;;;;21.93;20.20;;;;;;;22.12;nan;99080.94;2057862;28;20432;-75
2022/07/05 00:39:16;;;;;;;21.33;19.63;;;;;;;22.13;nan;99079.78;2049027;29;20445;-75
2022/07/05 00:40:17;;;;;;;22.20;20.40;;;;;;;22.15;nan;99089.13;2049226;28;20210;-75
2022/07/05 00:41:19;;;;;;;23.60;21.33;;;;;;;22.15;nan;99091.84;2057300;28;20421;-75
2022/07/05 00:42:21;;;;;;;22.10;20.30;;;;;;;22.18;nan;99079.44;2056599;28;20213;-74
2022/07/05 00:43:23;;;;;;;21.57;19.97;;;;;;;22.19;nan;99091.88;2049300;28;20940;-75
2022/07/05 00:44:29;;;;;;;22.50;20.60;;;;;;;22.22;nan;99099.28;2049546;28;20488;-75
2022/07/05 00:45:31;;;;;;;22.90;20.43;;;;;;;22.21;nan;99098.50;2059531;28;20452;-74
2022/07/05 00:46:36;;;;;;;21.30;19.67;;;;;;;22.28;nan;99095.06;2059148;28;20914;-75
2022/07/05 00:47:38;;;;;;;22.43;20.30;;;;;;;22.27;nan;99101.66;2050440;29;20437;-75
2022/07/05 00:48:41;;;;;;;21.30;19.40;;;;;;;22.23;nan;99098.13;2051121;28;20797;-75
2022/07/05 00:49:44;;;;;;;20.80;19.30;;;;;;;22.25;nan;99104.00;2050447;29;20458;-75
2022/07/05 00:50:47;;;;;;;21.33;19.63;;;;;;;22.27;nan;99107.88;2051257;28;20446;-75
2022/07/05 00:51:49;;;;;;;21.70;20.00;;;;;;;22.27;nan;99107.88;2058114;28;20540;-74
2022/07/05 00:52:54;;;;;;;20.80;19.30;;;;;;;22.21;nan;99108.59;2059082;28;20918;-75
2022/07/05 00:53:55;;;;;;;21.57;19.57;;;;;;;22.24;nan;99107.84;2050914;29;20462;-75
2022/07/05 00:54:56;;;;;;;21.93;19.87;;;;;;;22.27;nan;99113.31;2041824;29;20453;-75
2022/07/05 00:55:57;;;;;;;21.53;19.67;;;;;;;22.29;nan;99116.44;2050972;28;20213;-75
2022/07/05 00:56:59;;;;;;;21.43;19.47;;;;;;;22.28;nan;99116.81;2050392;29;20489;-75
2022/07/05 00:58:00;;;;;;;21.37;19.67;;;;;;;22.24;nan;99108.66;2050495;28;20202;-75
2022/07/05 00:59:02;;;;;;;21.10;19.60;;;;;;;22.24;nan;99115.97;2059119;28;20437;-75
2022/07/05 01:00:07;;;;;;;20.77;19.23;;;;;;;22.27;nan;99117.97;2058965;28;20572;-74
2022/07/05 01:01:09;;;;;;;20.87;19.37;;;;;;;22.22;nan;99118.31;2050734;29;20441;-75
2022/07/05 01:02:12;;;;;;;21.20;19.50;;;;;;;22.25;nan;99121.06;2042466;29;21004;-75
2022/07/05 01:03:15;;;;;;;21.17;19.50;;;;;;;22.26;nan;99119.13;2042509;29;20948;-75
2022/07/05 01:04:18;;;;;;;20.93;19.37;;;;;;;22.29;nan;99116.44;2051545;28;20896;-75
2022/07/05 01:05:20;;;;;;;22.20;19.93;;;;;;;22.25;nan;99114.84;2058987;28;20428;-74
2022/07/05 01:06:21;;;;;;;20.53;19.03;;;;;;;22.27;nan;99112.53;2050071;29;20570;-74
2022/07/05 01:07:26;;;;;;;20.47;18.87;;;;;;;22.34;nan;99109.91;2050187;28;20446;-74
2022/07/05 01:08:27;;;;;;;21.57;19.80;;;;;;;22.34;nan;99111.84;2058691;28;20874;-75
2022/07/05 01:09:29;;;;;;;21.30;19.43;;;;;;;22.35;nan;99106.03;2059395;28;20816;-75
2022/07/05 01:10:32;;;;;;;21.33;19.47;;;;;;;22.43;nan;99110.38;2050303;29;20548;-75
2022/07/05 01:11:33;;;;;;;21.03;19.53;;;;;;;22.43;nan;99109.59;2042281;29;20486;-74
2022/07/05 01:12:35;;;;;;;21.77;20.00;;;;;;;22.34;nan;99104.47;2050381;28;20441;-75
2022/07/05 01:13:40;;;;;;;21.50;19.80;;;;;;;22.30;nan;99103.63;2049886;29;20474;-75
2022/07/05 01:14:41;;;;;;;22.03;19.90;;;;;;;22.34;nan;99107.19;2051910;28;20458;-75
2022/07/05 01:15:43;;;;;;;21.33;19.57;;;;;;;22.34;nan;99100.97;2050219;29;20528;-75
2022/07/05 01:16:47;;;;;;;20.77;19.37;;;;;;;22.34;nan;99099.03;2051189;28;20466;-74
2022/07/05 01:17:51;;;;;;;20.93;19.37;;;;;;;22.35;nan;99097.88;2050502;29;20502;-75
2022/07/05 01:18:52;;;;;;;21.60;19.90;;;;;;;22.31;nan;99096.25;2042690;29;20466;-75
2022/07/05 01:19:54;;;;;;;21.00;19.33;;;;;;;22.26;nan;99100.09;2051291;28;20986;-75
2022/07/05 01:20:56;;;;;;;20.87;19.33;;;;;;;22.22;nan;99088.41;2049621;28;20461;-75
2022/07/05 01:21:58;;;;;;;21.40;19.50;;;;;;;22.19;nan;99100.81;2042498;29;20466;-75
2022/07/05 01:23:02;;;;;;;21.93;20.30;;;;;;;22.27;nan;99102.44;2050622;28;20513;-75
2022/07/05 01:24:04;;;;;;;21.17;19.67;;;;;;;22.26;nan;99094.69;2058817;28;20440;-75
2022/07/05 01:25:06;;;;;;;21.43;19.93;;;;;;;22.23;nan;99095.41;2059018;28;20429;-75
2022/07/05 01:26:07;;;;;;;21.57;19.90;;;;;;;22.23;nan;99090.75;2058793;28;21002;-75
2022/07/05 01:27:09;;;;;;;20.77;19.37;;;;;;;22.22;nan;99085.69;2058975;28;20421;-75
2022/07/05 01:28:10;;;;;;;21.90;20.17;;;;;;;22.24;nan;99080.66;2050251;29;21040;-75
2022/07/05 01:29:12;;;;;;;21.47;19.77;;;;;;;22.23;nan;99081.81;2050265;28;20469;-75
2022/07/05 01:30:13;;;;;;;21.37;19.87;;;;;;;22.24;nan;99080.66;2050282;29;20540;-75
2022/07/05 01:31:15;;;;;;;21.63;20.10;;;;;;;22.27;nan;99077.22;2050099;29;20450;-74
2022/07/05 01:32:16;;;;;;;21.53;19.90;;;;;;;22.31;nan;99075.28;2050381;28;20794;-75
2022/07/05 01:33:17;;;;;;;22.10;20.20;;;;;;;22.27;nan;99077.22;2050901;29;20472;-75
2022/07/05 01:34:19;;;;;;;21.77;20.00;;;;;;;22.24;nan;99076.03;2050260;28;20226;-75
2022/07/05 01:35:21;;;;;;;21.33;19.70;;;;;;;22.25;nan;99084.97;2050596;29;20454;-74
2022/07/05 01:36:23;;;;;;;21.67;19.80;;;;;;;22.43;nan;99088.63;2049681;29;20881;-75
2022/07/05 01:37:24;;;;;;;22.00;20.07;;;;;;;22.55;nan;99082.13;2050315;28;20434;-75
2022/07/05 01:38:26;;;;;;;21.93;20.10;;;;;;;22.45;nan;99070.00;2050494;29;20977;-75
2022/07/05 01:39:28;;;;;;;21.37;19.70;;;;;;;22.47;nan;99080.50;2050036;29;20434;-74
2022/07/05 01:40:30;;;;;;;21.67;20.07;;;;;;;22.43;nan;99072.31;2050656;28;20433;-74
2022/07/05 01:41:33;;;;;;;21.27;19.43;;;;;;;22.39;nan;99073.44;2049991;29;20485;-75
2022/07/05 01:42:34;;;;;;;21.33;19.73;;;;;;;22.35;nan;99070.69;2050286;28;20978;-74
2022/07/05 01:43:36;;;;;;;22.27;20.57;;;;;;;22.33;nan;99077.63;2050361;29;20911;-75
2022/07/05 01:44:38;;;;;;;22.20;20.40;;;;;;;22.29;nan;99070.22;2050430;28;20581;-74
2022/07/05 01:45:41;;;;;;;22.20;20.40;;;;;;;22.28;nan;99078.75;2049652;29;20533;-74
2022/07/05 01:46:43;;;;;;;22.30;20.63;;;;;;;22.24;nan;99075.22;2050034;29;20206;-75
2022/07/05 01:47:45;;;;;;;22.53;20.60;;;;;;;22.22;nan;99077.53;2050231;28;20528;-74
2022/07/05 01:48:47;;;;;;;21.47;19.90;;;;;;;22.18;nan;99076.72;2049990;29;20461;-75
2022/07/05 01:49:51;;;;;;;21.37;19.73;;;;;;;22.16;nan;99077.09;2049633;29;20525;-75
2022/07/05 01:50:54;;;;;;;22.30;20.70;;;;;;;22.15;nan;99072.81;2041961;29;20840;-75
2022/07/05 01:51:59;;;;;;;21.90;20.20;;;;;;;22.14;nan;99071.25;2050375;28;20437;-75
2022/07/05 01:53:01;;;;;;;21.97;20.07;;;;;;;22.11;nan;99069.28;2058817;28;20580;-76
2022/07/05 01:54:04;;;;;;;21.80;20.17;;;;;;;22.27;nan;99074.50;2049961;29;20446;-75
2022/07/05 01:55:07;;;;;;;22.07;20.00;;;;;;;22.29;nan;99078.38;2042029;29;20876;-75
2022/07/05 01:56:09;;;;;;;21.27;19.67;;;;;;;22.27;nan;99075.25;2042276;29;20443;-74
2022/07/05 01:57:14;;;;;;;21.87;20.27;;;;;;;22.25;nan;99082.25;2042181;29;20988;-75
2022/07/05 01:58:16;;;;;;;22.07;20.47;;;;;;;22.20;nan;99069.75;2050213;28;20442;-75
2022/07/05 01:59:17;;;;;;;21.27;19.77;;;;;;;22.18;nan;99076.72;2057894;28;20493;-75
2022/07/05 02:00:19;;;;;;;22.43;20.50;;;;;;;22.16;nan;99076.31;2049975;29;20445;-75
2022/07/05 02:01:32;;;;;;;22.23;20.43;;;;;;;22.13;nan;99068.91;2049590;28;20289;-75
2022/07/05 02:02:38;;;;;;;22.03;20.27;;;;;;;22.10;nan;99069.66;2058152;28;20436;-75
2022/07/05 02:03:39;;;;;;;21.83;20.03;;;;;;;22.08;nan;99082.84;2058543;28;20472;-75
2022/07/05 02:04:43;;;;;;;22.33;20.60;;;;;;;22.04;nan;99071.09;2049927;29;20450;-75
2022/07/05 02:05:46;;;;;;;21.57;19.77;;;;;;;22.00;nan;99077.28;2049903;29;20976;-75
2022/07/05 02:06:52;;;;;;;21.93;20.33;;;;;;;21.97;nan;99077.22;2050845;28;20858;-75
2022/07/05 02:07:53;;;;;;;22.17;20.40;;;;;;;21.93;nan;99071.78;2057807;28;20479;-75
2022/07/05 02:08:55;;;;;;;21.83;20.30;;;;;;;21.93;nan;99077.22;2049822;29;20548;-74
2022/07/05 02:09:59;;;;;;;22.93;20.97;;;;;;;21.91;nan;99076.81;2050126;28;20205;-75
2022/07/05 02:11:00;;;;;;;21.93;20.33;;;;;;;21.89;nan;99073.69;2049858;29;20473;-74
2022/07/05 02:12:03;;;;;;;22.77;20.90;;;;;;;21.88;nan;99074.81;2041912;29;20474;-75
2022/07/05 02:13:04;;;;;;;23.10;21.00;;;;;;;21.86;nan;99074.41;2049782;29;20517;-75
2022/07/05 02:14:07;;;;;;;22.70;20.90;;;;;;;21.84;nan;99068.56;2050047;28;20478;-75
2022/07/05 02:15:11;;;;;;;22.20;20.50;;;;;;;21.83;nan;99072.44;2050120;29;20461;-75
2022/07/05 02:16:13;;;;;;;21.77;20.07;;;;;;;21.83;nan;99072.44;2040761;29;20507;-74
2022/07/05 02:17:13;;;;;;;21.77;20.07;;;;;;;21.83;nan;99072.44;2041673;29;20809;-74
2022/07/05 02:18:17;;;;;;;21.90;20.20;;;;;;;21.81;nan;99069.31;2049892;29;20533;-75
2022/07/05 02:19:18;;;;;;;21.60;20.00;;;;;;;21.81;nan;99080.19;2042051;29;20443;-75
2022/07/05 02:20:20;;;;;;;21.87;20.27;;;;;;;21.81;nan;99068.53;2050172;29;20434;-75
2022/07/05 02:21:21;;;;;;;22.33;20.43;;;;;;;21.80;nan;99072.38;2048679;29;20230;-75
2022/07/05 02:22:28;;;;;;;21.80;20.00;;;;;;;21.79;nan;99070.81;2049624;29;20466;-75
2022/07/05 02:23:35;;;;;;;22.50;20.53;;;;;;;21.78;nan;99072.75;2042824;29;20450;-74
2022/07/05 02:24:39;;;;;;;22.00;20.30;;;;;;;21.78;nan;99064.59;2042766;29;20442;-74
2022/07/05 02:25:57;;;;;;;22.00;20.17;;;;;;;21.75;nan;99062.66;2052084;28;20460;-75
2022/07/05 02:26:59;;;;;;;21.83;20.23;;;;;;;21.76;nan;99066.91;2057803;28;20433;-75
2022/07/05 02:28:00;;;;;;;21.80;19.97;;;;;;;21.74;nan;99061.09;2049717;29;20454;-75
2022/07/05 02:29:02;;;;;;;21.37;19.87;;;;;;;21.72;nan;99066.09;2049778;29;20425;-74
2022/07/05 02:30:05;;;;;;;21.27;19.50;;;;;;;21.74;nan;99074.66;2057609;28;20681;-74
2022/07/05 02:31:13;;;;;;;20.40;18.90;;;;;;;21.70;nan;99071.09;2050261;29;20944;-75
2022/07/05 02:32:15;;;;;;;20.47;19.07;;;;;;;21.69;nan;99077.69;2042149;29;20487;-74
2022/07/05 02:33:17;;;;;;;20.23;18.73;;;;;;;21.67;nan;99075.34;2050155;28;20791;-74
2022/07/05 02:34:18;;;;;;;21.03;19.53;;;;;;;21.63;nan;99071.00;2049684;29;20454;-75
2022/07/05 02:35:20;;;;;;;20.70;19.00;;;;;;;21.61;nan;99081.47;2049722;28;20870;-75
2022/07/05 02:36:24;;;;;;;20.50;19.10;;;;;;;21.61;nan;99078.75;2057568;28;20464;-75
2022/07/05 02:37:26;;;;;;;21.40;19.90;;;;;;;21.59;nan;99081.06;2058329;28;20421;-75
2022/07/05 02:38:29;;;;;;;21.00;19.40;;;;;;;21.56;nan;99076.38;2058708;28;20946;-74
2022/07/05 02:39:31;;;;;;;21.03;19.53;;;;;;;21.56;nan;99081.81;2049657;29;20886;-75
2022/07/05 02:40:33;;;;;;;21.10;19.60;;;;;;;21.50;nan;99084.06;2049581;29;20453;-74
2022/07/05 02:41:38;;;;;;;21.33;19.77;;;;;;;21.50;nan;99086.00;2049992;29;20454;-74
2022/07/05 02:42:40;;;;;;;20.93;19.47;;;;;;;21.47;nan;99082.09;2049531;29;21062;-75
2022/07/05 02:43:45;;;;;;;20.90;19.40;;;;;;;21.45;nan;99085.16;2050238;28;20497;-75
2022/07/05 02:44:49;;;;;;;21.17;19.23;;;;;;;21.45;nan;99085.16;2057517;28;20461;-75
2022/07/05 02:45:53;;;;;;;20.30;18.93;;;;;;;21.43;nan;99086.66;2057450;28;20441;-75
2022/07/05 02:46:54;;;;;;;20.70;19.20;;;;;;;21.43;nan;99090.16;2049848;29;20496;-75
2022/07/05 02:47:58;;;;;;;21.20;19.60;;;;;;;21.39;nan;99085.84;2041701;29;20502;-75
2022/07/05 02:49:00;;;;;;;21.10;19.60;;;;;;;21.39;nan;99088.56;2042325;29;20454;-75
2022/07/05 02:50:06;;;;;;;21.17;19.57;;;;;;;21.38;nan;99092.44;2042480;29;20435;-75
2022/07/05 02:51:10;;;;;;;20.77;19.23;;;;;;;21.37;nan;99088.13;2041498;29;20986;-73
2022/07/05 02:52:10;;;;;;;20.50;19.10;;;;;;;21.37;nan;99088.13;2049745;29;20808;-73
2022/07/05 02:53:12;;;;;;;21.43;19.50;;;;;;;21.35;nan;99093.94;2049484;28;20540;-75
2022/07/05 02:54:13;;;;;;;22.40;20.40;;;;;;;21.36;nan;99092.78;2049566;29;20438;-75
2022/07/05 02:55:15;;;;;;;21.67;19.73;;;;;;;21.37;nan;99097.09;2049492;29;20434;-74
2022/07/05 02:56:16;;;;;;;21.87;19.90;;;;;;;21.39;nan;99092.06;2041623;29;20455;-74
2022/07/05 02:57:19;;;;;;;21.27;19.77;;;;;;;21.40;nan;99093.63;2049814;29;20444;-74
2022/07/05 02:58:22;;;;;;;21.60;19.87;;;;;;;21.41;nan;99089.75;2049501;29;20238;-74
2022/07/05 02:59:26;;;;;;;22.30;20.70;;;;;;;21.45;nan;99090.56;2049830;29;20952;-74
2022/07/05 03:00:27;;;;;;;22.30;20.27;;;;;;;21.46;nan;99091.38;2049468;29;20834;-75
2022/07/05 03:01:29;;;;;;;22.50;20.47;;;;;;;21.45;nan;99095.22;2049426;29;20438;-74
2022/07/05 03:02:31;;;;;;;21.80;20.20;;;;;;;21.44;nan;99094.44;2057759;28;20201;-75
2022/07/05 03:03:35;;;;;;;22.73;20.90;;;;;;;21.40;nan;99087.41;2049466;29;20442;-74
2022/07/05 03:04:36;;;;;;;21.40;19.90;;;;;;;21.41;nan;99095.19;2049645;29;20457;-75
2022/07/05 03:05:38;;;;;;;21.47;19.97;;;;;;;21.37;nan;99091.66;2049494;28;20968;-75
2022/07/05 03:06:39;;;;;;;21.97;20.43;;;;;;;21.33;nan;99096.22;2056833;28;20461;-74
2022/07/05 03:07:41;;;;;;;21.50;19.77;;;;;;;21.30;nan;99096.97;2057292;28;20443;-74
2022/07/05 03:08:41;;;;;;;21.27;19.77;;;;;;;21.28;nan;99106.63;2049372;29;20221;-74
2022/07/05 03:09:44;;;;;;;21.50;20.00;;;;;;;21.25;nan;99104.63;2049391;29;20512;-75
2022/07/05 03:10:46;;;;;;;21.63;19.93;;;;;;;21.23;nan;99109.63;2041284;29;20973;-74
2022/07/05 03:11:47;;;;;;;22.17;20.47;;;;;;;21.21;nan;99107.28;2049511;29;20757;-75
2022/07/05 03:12:51;;;;;;;22.47;20.63;;;;;;;21.17;nan;99111.88;2058420;28;20663;-75
2022/07/05 03:13:54;;;;;;;22.27;20.67;;;;;;;21.15;nan;99120.38;2049412;29;20446;-75
2022/07/05 03:14:55;;;;;;;22.27;20.47;;;;;;;21.13;nan;99121.91;2049388;29;20484;-75
2022/07/05 03:15:58;;;;;;;21.77;20.27;;;;;;;21.10;nan;99125.31;2049876;28;20454;-75
2022/07/05 03:16:58;;;;;;;22.73;20.77;;;;;;;21.07;nan;99128.78;2049152;28;21067;-75
2022/07/05 03:18:00;;;;;;;21.83;20.40;;;;;;;21.05;nan;99123.72;2049693;29;20823;-75
2022/07/05 03:19:04;;;;;;;21.87;20.27;;;;;;;21.04;nan;99124.88;2049153;28;20206;-75
2022/07/05 03:20:08;;;;;;;22.03;20.33;;;;;;;21.02;nan;99127.13;2049582;29;20521;-75
2022/07/05 03:21:08;;;;;;;21.47;19.97;;;;;;;21.01;nan;99131.00;2049693;28;20441;-75
2022/07/05 03:22:11;;;;;;;21.70;20.10;;;;;;;21.01;nan;99136.41;2049354;29;20437;-75
2022/07/05 03:23:13;;;;;;;21.97;20.37;;;;;;;21.01;nan;99132.94;2049881;28;20496;-75
2022/07/05 03:24:21;;;;;;;22.43;20.73;;;;;;;21.00;nan;99129.44;2049432;29;20460;-75
2022/07/05 03:25:23;;;;;;;21.90;20.30;;;;;;;21.01;nan;99132.94;2049062;28;20887;-75
2022/07/05 03:26:28;;;;;;;22.00;20.20;;;;;;;21.01;nan;99131.00;2049666;29;20461;-75
2022/07/05 03:27:29;;;;;;;22.03;20.53;;;;;;;21.00;nan;99128.66;2049297;29;20553;-75
2022/07/05 03:28:33;;;;;;;21.80;20.20;;;;;;;21.02;nan;99131.78;2049732;29;20449;-75
2022/07/05 03:29:35;;;;;;;22.63;20.93;;;;;;;21.02;nan;99129.06;2049752;28;20210;-75
2022/07/05 03:30:37;;;;;;;23.60;21.70;;;;;;;21.00;nan;99126.72;2048932;29;20438;-75
2022/07/05 03:31:37;;;;;;;22.90;21.10;;;;;;;20.99;nan;99118.94;2049229;28;20217;-75
2022/07/05 03:32:41;;;;;;;23.10;21.13;;;;;;;20.97;nan;99118.53;2049290;28;20438;-75
2022/07/05 03:33:42;;;;;;;22.80;21.10;;;;;;;20.94;nan;99120.06;2049230;29;20840;-75
2022/07/05 03:34:46;;;;;;;22.30;20.37;;;;;;;20.95;nan;99118.13;2049514;28;20936;-75
2022/07/05 03:35:47;;;;;;;21.60;20.10;;;;;;;20.92;nan;99116.91;2049223;29;20446;-75
2022/07/05 03:36:51;;;;;;;22.30;20.53;;;;;;;20.91;nan;99119.97;2048988;29;20469;-75
2022/07/05 03:37:52;;;;;;;22.43;20.70;;;;;;;20.89;nan;99121.13;2049239;29;20485;-75
2022/07/05 03:38:56;;;;;;;22.37;20.33;;;;;;;20.86;nan;99119.16;2041527;29;20467;-74
2022/07/05 03:39:58;;;;;;;21.73;20.20;;;;;;;20.85;nan;99116.81;2049193;29;20477;-74
2022/07/05 03:41:01;;;;;;;21.73;20.17;;;;;;;20.83;nan;99117.16;2048378;29;20454;-75
2022/07/05 03:42:03;;;;;;;29.43;21.17;;;;;;;20.80;nan;99125.25;2049143;29;20465;-75
2022/07/05 03:43:06;;;;;;;22.30;20.70;;;;;;;20.75;nan;99120.09;2049409;28;20481;-75
2022/07/05 03:44:11;;;;;;;22.70;20.80;;;;;;;20.72;nan;99121.63;2049443;29;20963;-74
2022/07/05 03:45:13;;;;;;;22.70;20.77;;;;;;;20.68;nan;99125.44;2040732;29;20451;-74
2022/07/05 03:46:14;;;;;;;22.37;20.67;;;;;;;20.65;nan;99128.84;2049314;28;20454;-74
2022/07/05 03:47:18;;;;;;;23.33;21.40;;;;;;;20.60;nan;99119.09;2049434;29;20456;-74
2022/07/05 03:48:20;;;;;;;23.23;21.13;;;;;;;20.58;nan;99124.84;2049468;28;20976;-75
2022/07/05 03:49:25;;;;;;;22.87;21.17;;;;;;;20.55;nan;99130.22;2057631;28;20456;-75
2022/07/05 03:50:26;;;;;;;23.77;21.67;;;;;;;20.51;nan;99138.31;2057278;28;20467;-75
2022/07/05 03:51:27;;;;;;;22.87;21.07;;;;;;;20.48;nan;99136.31;2057552;28;20445;-75
2022/07/05 03:52:30;;;;;;;22.43;20.73;;;;;;;20.45;nan;99136.25;2058284;28;20189;-75
2022/07/05 03:53:34;;;;;;;23.27;21.50;;;;;;;20.44;nan;99140.09;2049210;29;20874;-75
2022/07/05 03:54:37;;;;;;;21.90;20.30;;;;;;;20.41;nan;99141.56;2042168;29;20968;-75
2022/07/05 03:55:41;;;;;;;22.37;20.77;;;;;;;20.39;nan;99143.84;2048943;28;20449;-75
2022/07/05 03:56:42;;;;;;;23.10;21.40;;;;;;;20.40;nan;99144.63;2049211;29;20461;-75
2022/07/05 03:57:47;;;;;;;23.17;21.37;;;;;;;20.39;nan;99143.06;2042436;29;20446;-75
2022/07/05 03:58:49;;;;;;;23.10;21.40;;;;;;;20.38;nan;99144.22;2041429;29;20459;-75
2022/07/05 03:59:52;;;;;;;23.87;21.77;;;;;;;20.37;nan;99153.50;2041814;29;20477;-75
2022/07/05 04:00:53;;;;;;;22.70;20.90;;;;;;;20.35;nan;99144.94;2041406;29;20467;-75
2022/07/05 04:02:01;;;;;;;22.70;20.80;;;;;;;20.37;nan;99156.97;2049144;29;20449;-75
2022/07/05 04:03:02;;;;;;;23.03;20.97;;;;;;;20.36;nan;99155.41;2050005;28;20466;-75
2022/07/05 04:04:04;;;;;;;22.47;20.77;;;;;;;20.35;nan;99153.84;2056801;28;20532;-75
2022/07/05 04:05:06;;;;;;;22.87;21.13;;;;;;;20.37;nan;99150.78;2049571;29;20207;-75
2022/07/05 04:06:09;;;;;;;24.07;21.70;;;;;;;20.36;nan;99154.63;2048702;28;20889;-75
2022/07/05 04:07:09;;;;;;;22.90;21.10;;;;;;;20.38;nan;99157.75;2048783;29;20501;-75
2022/07/05 04:08:12;;;;;;;22.67;20.83;;;;;;;20.38;nan;99157.75;2041801;29;20441;-75
2022/07/05 04:09:17;;;;;;;22.53;20.63;;;;;;;20.37;nan;99159.69;2041816;29;20458;-75
2022/07/05 04:10:19;;;;;;;23.50;21.40;;;;;;;20.36;nan;99163.56;2049261;29;20430;-75
2022/07/05 04:11:22;;;;;;;23.17;20.87;;;;;;;20.39;nan;99164.75;2049163;28;20507;-75
2022/07/05 04:12:27;;;;;;;22.80;20.90;;;;;;;20.37;nan;99151.56;2057270;28;20433;-75
2022/07/05 04:13:28;;;;;;;22.43;20.73;;;;;;;20.39;nan;99164.75;2049935;29;20442;-75
2022/07/05 04:14:32;;;;;;;22.33;20.53;;;;;;;20.39;nan;99167.47;2049155;29;20445;-75
2022/07/05 04:15:35;;;;;;;23.07;21.17;;;;;;;20.38;nan;99163.97;2049682;28;20781;-75
2022/07/05 04:16:39;;;;;;;23.23;21.07;;;;;;;20.39;nan;99167.47;2048884;28;20505;-75
2022/07/05 04:17:47;;;;;;;22.53;20.80;;;;;;;20.35;nan;99170.13;2041152;29;20599;-75
2022/07/05 04:18:51;;;;;;;22.90;20.83;;;;;;;20.35;nan;99177.47;2043297;29;20472;-75
2022/07/05 04:19:51;;;;;;;22.57;20.87;;;;;;;20.32;nan;99168.09;2050788;29;20441;-75
2022/07/05 04:20:53;;;;;;;22.93;21.13;;;;;;;20.35;nan;99180.16;2050415;29;20450;-75
2022/07/05 04:21:54;;;;;;;23.20;21.10;;;;;;;20.32;nan;99170.81;2050636;29;20201;-75
2022/07/05 04:22:59;;;;;;;23.30;21.07;;;;;;;20.36;nan;99166.25;2050568;29;20533;-75
2022/07/05 04:24:00;;;;;;;23.50;21.50;;;;;;;20.37;nan;99167.81;2043343;29;20976;-75
2022/07/05 04:25:17;;;;;;;23.83;21.57;;;;;;;20.50;nan;99172.00;2050744;29;20918;-75
2022/07/05 04:26:22;;;;;;;22.90;20.90;;;;;;;20.55;nan;99173.59;2059291;28;20700;-75
2022/07/05 04:27:23;;;;;;;24.20;22.00;;;;;;;20.49;nan;99164.97;2050649;29;20481;-75
2022/07/05 04:28:26;;;;;;;24.00;21.80;;;;;;;20.45;nan;99160.66;2050624;28;20457;-75
2022/07/05 04:29:32;;;;;;;23.63;21.67;;;;;;;20.39;nan;99162.81;2051220;29;20449;-75
2022/07/05 04:30:35;;;;;;;23.70;21.60;;;;;;;20.34;nan;99160.41;2043606;29;20882;-75
2022/07/05 04:31:39;;;;;;;24.17;22.10;;;;;;;20.31;nan;99170.03;2043435;29;20840;-72
2022/07/05 04:32:40;;;;;;;23.83;21.70;;;;;;;20.28;nan;99162.63;2042703;29;20989;-72
2022/07/05 04:33:42;;;;;;;23.97;21.57;;;;;;;20.25;nan;99168.78;2051091;28;20956;-72
2022/07/05 04:34:45;;;;;;;24.10;21.90;;;;;;;20.23;nan;99165.59;2050525;29;20449;-72
2022/07/05 04:35:47;;;;;;;23.77;21.63;;;;;;;20.19;nan;99170.19;2042252;29;20549;-72
2022/07/05 04:36:47;;;;;;;23.43;21.33;;;;;;;20.15;nan;99172.03;2042545;29;20768;-74
2022/07/05 04:37:49;;;;;;;23.40;21.40;;;;;;;20.15;nan;99176.66;2042814;29;20849;-73
2022/07/05 04:38:50;;;;;;;23.33;21.43;;;;;;;20.10;nan;99183.16;2042643;29;20198;-74
2022/07/05 04:39:54;;;;;;;23.30;21.40;;;;;;;20.08;nan;99180.03;2043154;29;20537;-74
2022/07/05 04:40:55;;;;;;;23.13;21.17;;;;;;;20.05;nan;99180.72;2050079;29;20960;-74
2022/07/05 04:41:58;;;;;;;23.33;21.27;;;;;;;20.02;nan;99179.53;2050579;28;20525;-74
2022/07/05 04:42:59;;;;;;;22.93;21.17;;;;;;;19.99;nan;99176.75;2051487;29;20492;-74
2022/07/05 04:44:01;;;;;;;23.70;21.40;;;;;;;19.96;nan;99183.66;2042047;29;20443;-75
2022/07/05 04:45:02;;;;;;;23.33;21.33;;;;;;;19.93;nan;99175.47;2041995;29;20462;-78
2022/07/05 04:46:08;;;;;;;23.40;21.50;;;;;;;19.90;nan;99171.53;2050066;29;20434;-78
2022/07/05 04:47:09;;;;;;;23.67;21.63;;;;;;;19.90;nan;99173.47;2051174;28;20829;-78
2022/07/05 04:48:11;;;;;;;24.27;22.17;;;;;;;19.85;nan;99173.75;2050471;29;20452;-77
2022/07/05 04:49:15;;;;;;;23.33;21.23;;;;;;;19.80;nan;99166.66;2050724;28;20213;-71
2022/07/05 04:50:19;;;;;;;23.13;21.23;;;;;;;19.76;nan;99169.31;2050440;29;20545;-73
2022/07/05 04:51:20;;;;;;;24.90;22.60;;;;;;;19.74;nan;99174.28;2042393;29;20465;-74
2022/07/05 04:52:22;;;;;;;24.27;21.87;;;;;;;19.73;nan;99167.31;2042620;29;20446;-73
2022/07/05 04:53:23;;;;;;;24.10;21.80;;;;;;;19.76;nan;99173.94;2050564;29;20507;-73
2022/07/05 04:54:24;;;;;;;25.00;22.70;;;;;;;19.79;nan;99175.16;2050001;29;20990;-71